sensor_id;sensor_type;location;lat;lon;timestamp;P1;durP1;ratioP1;P2;durP2;ratioP2
12373;SDS011;6251;51.762;8.660;2022-08-01T01:06:14;11.88;;;9.25;;
12373;SDS011;6251;51.762;8.660;2022-08-01T02:48:16;9.82;;;8.05;;
12373;SDS011;6251;51.762;8.660;2022-08-01T02:58:18;12.93;;;8.30;;
12373;SDS011;6251;51.762;8.660;2022-08-01T04:39:56;6.32;;;5.50;;
12373;SDS011;6251;51.762;8.660;2022-08-01T04:49:59;7.90;;;6.62;;
12373;SDS011;6251;51.762;8.660;2022-08-01T05:00:00;7.87;;;7.03;;
12373;SDS011;6251;51.762;8.660;2022-08-01T05:21:23;7.55;;;6.03;;
12373;SDS011;6251;51.762;8.660;2022-08-01T05:42:20;7.45;;;5.72;;
12373;SDS011;6251;51.762;8.660;2022-08-01T06:46:26;10.52;;;7.50;;
12373;SDS011;6251;51.762;8.660;2022-08-01T06:56:53;5.12;;;4.62;;
12373;SDS011;6251;51.762;8.660;2022-08-01T07:06:53;5.80;;;5.30;;
12373;SDS011;6251;51.762;8.660;2022-08-01T07:16:54;5.87;;;5.32;;
12373;SDS011;6251;51.762;8.660;2022-08-01T07:26:54;3.93;;;3.63;;
12373;SDS011;6251;51.762;8.660;2022-08-01T08:07:54;4.62;;;4.22;;
12373;SDS011;6251;51.762;8.660;2022-08-01T08:49:27;5.45;;;4.95;;
12373;SDS011;6251;51.762;8.660;2022-08-01T09:09:39;5.95;;;5.45;;
12373;SDS011;6251;51.762;8.660;2022-08-01T09:19:40;2.93;;;2.77;;
12373;SDS011;6251;51.762;8.660;2022-08-01T09:29:44;3.75;;;3.45;;
12373;SDS011;6251;51.762;8.660;2022-08-01T09:39:45;3.72;;;3.47;;
12373;SDS011;6251;51.762;8.660;2022-08-01T09:49:56;3.20;;;3.00;;
12373;SDS011;6251;51.762;8.660;2022-08-01T09:59:58;4.05;;;3.72;;
12373;SDS011;6251;51.762;8.660;2022-08-01T10:10:13;5.35;;;4.85;;
12373;SDS011;6251;51.762;8.660;2022-08-01T10:20:14;3.87;;;3.58;;
12373;SDS011;6251;51.762;8.660;2022-08-01T10:30:15;5.22;;;4.65;;
12373;SDS011;6251;51.762;8.660;2022-08-01T10:40:16;5.57;;;4.93;;
12373;SDS011;6251;51.762;8.660;2022-08-01T10:50:19;3.85;;;3.50;;
12373;SDS011;6251;51.762;8.660;2022-08-01T11:00:28;8.30;;;6.05;;
12373;SDS011;6251;51.762;8.660;2022-08-01T11:10:42;6.97;;;6.22;;
12373;SDS011;6251;51.762;8.660;2022-08-01T11:20:54;4.40;;;4.00;;
12373;SDS011;6251;51.762;8.660;2022-08-01T11:51:17;5.03;;;4.03;;
12373;SDS011;6251;51.762;8.660;2022-08-01T12:01:18;3.60;;;3.30;;
12373;SDS011;6251;51.762;8.660;2022-08-01T12:11:19;2.37;;;2.28;;
12373;SDS011;6251;51.762;8.660;2022-08-01T12:21:20;1.58;;;1.58;;
12373;SDS011;6251;51.762;8.660;2022-08-01T12:31:30;1.97;;;1.87;;
12373;SDS011;6251;51.762;8.660;2022-08-01T12:41:31;3.00;;;2.80;;
12373;SDS011;6251;51.762;8.660;2022-08-01T12:51:32;4.47;;;3.75;;
12373;SDS011;6251;51.762;8.660;2022-08-01T13:01:33;3.00;;;2.78;;
12373;SDS011;6251;51.762;8.660;2022-08-01T13:11:34;2.67;;;2.57;;
12373;SDS011;6251;51.762;8.660;2022-08-01T13:21:36;2.92;;;2.83;;
12373;SDS011;6251;51.762;8.660;2022-08-01T13:31:37;3.10;;;2.90;;
12373;SDS011;6251;51.762;8.660;2022-08-01T13:41:39;3.70;;;3.50;;
12373;SDS011;6251;51.762;8.660;2022-08-01T13:51:39;3.58;;;3.17;;
12373;SDS011;6251;51.762;8.660;2022-08-01T14:01:40;4.12;;;3.92;;
12373;SDS011;6251;51.762;8.660;2022-08-01T14:11:41;3.83;;;3.53;;
12373;SDS011;6251;51.762;8.660;2022-08-01T14:21:42;1.55;;;1.52;;
12373;SDS011;6251;51.762;8.660;2022-08-01T14:31:42;1.50;;;1.50;;
12373;SDS011;6251;51.762;8.660;2022-08-01T14:41:43;1.60;;;1.50;;
12373;SDS011;6251;51.762;8.660;2022-08-01T14:51:44;1.40;;;1.40;;
12373;SDS011;6251;51.762;8.660;2022-08-01T15:01:44;1.30;;;1.30;;
12373;SDS011;6251;51.762;8.660;2022-08-01T15:11:45;1.40;;;1.30;;
12373;SDS011;6251;51.762;8.660;2022-08-01T15:21:47;1.48;;;1.48;;
12373;SDS011;6251;51.762;8.660;2022-08-01T15:31:47;1.90;;;1.80;;
12373;SDS011;6251;51.762;8.660;2022-08-01T15:41:48;1.55;;;1.55;;
12373;SDS011;6251;51.762;8.660;2022-08-01T15:51:49;2.10;;;2.00;;
12373;SDS011;6251;51.762;8.660;2022-08-01T16:01:50;2.40;;;2.20;;
12373;SDS011;6251;51.762;8.660;2022-08-01T16:11:51;2.28;;;2.05;;
12373;SDS011;6251;51.762;8.660;2022-08-01T16:21:52;2.40;;;2.08;;
12373;SDS011;6251;51.762;8.660;2022-08-01T16:31:53;2.30;;;2.20;;
12373;SDS011;6251;51.762;8.660;2022-08-01T16:41:53;2.10;;;2.00;;
12373;SDS011;6251;51.762;8.660;2022-08-01T16:51:54;3.00;;;2.50;;
12373;SDS011;6251;51.762;8.660;2022-08-01T17:01:54;5.20;;;2.40;;
12373;SDS011;6251;51.762;8.660;2022-08-01T17:11:55;2.10;;;2.10;;
12373;SDS011;6251;51.762;8.660;2022-08-01T17:21:56;2.97;;;2.20;;
12373;SDS011;6251;51.762;8.660;2022-08-01T17:31:56;2.12;;;2.03;;
12373;SDS011;6251;51.762;8.660;2022-08-01T17:41:57;2.30;;;2.20;;
12373;SDS011;6251;51.762;8.660;2022-08-01T17:51:58;2.70;;;2.50;;
12373;SDS011;6251;51.762;8.660;2022-08-01T18:01:58;2.83;;;2.50;;
12373;SDS011;6251;51.762;8.660;2022-08-01T18:11:59;2.78;;;2.60;;
12373;SDS011;6251;51.762;8.660;2022-08-01T18:22:00;2.80;;;2.70;;
12373;SDS011;6251;51.762;8.660;2022-08-01T18:32:01;3.10;;;2.80;;
12373;SDS011;6251;51.762;8.660;2022-08-01T18:42:03;3.17;;;2.97;;
12373;SDS011;6251;51.762;8.660;2022-08-01T18:52:04;3.50;;;3.30;;
12373;SDS011;6251;51.762;8.660;2022-08-01T19:02:05;3.60;;;3.40;;
12373;SDS011;6251;51.762;8.660;2022-08-01T19:12:05;3.87;;;3.67;;
12373;SDS011;6251;51.762;8.660;2022-08-01T19:22:06;4.28;;;3.97;;
12373;SDS011;6251;51.762;8.660;2022-08-01T19:32:08;4.07;;;3.78;;
12373;SDS011;6251;51.762;8.660;2022-08-01T19:42:11;4.78;;;4.28;;
12373;SDS011;6251;51.762;8.660;2022-08-01T19:52:14;4.70;;;4.30;;
12373;SDS011;6251;51.762;8.660;2022-08-01T20:02:18;4.78;;;4.37;;
12373;SDS011;6251;51.762;8.660;2022-08-01T20:12:19;4.60;;;4.30;;
12373;SDS011;6251;51.762;8.660;2022-08-01T20:22:22;4.95;;;4.53;;
12373;SDS011;6251;51.762;8.660;2022-08-01T20:32:30;5.57;;;5.07;;
12373;SDS011;6251;51.762;8.660;2022-08-01T20:42:32;7.22;;;5.20;;
12373;SDS011;6251;51.762;8.660;2022-08-01T20:52:35;5.68;;;5.12;;
12373;SDS011;6251;51.762;8.660;2022-08-01T23:05:07;6.90;;;6.37;;
